createdAt,value
2017-11-29T00:00:12.906Z,77.80
2017-11-29T00:02:40.361Z,77.90
2017-11-29T00:05:07.799Z,78.00
2017-11-29T00:07:35.281Z,77.90
2017-11-29T00:10:02.705Z,77.90
2017-11-29T00:12:30.134Z,77.90
2017-11-29T00:14:57.554Z,78.00
2017-11-29T00:17:25.021Z,78.10
2017-11-29T00:19:52.473Z,78.00
2017-11-29T00:22:20.699Z,78.20
2017-11-29T00:24:48.157Z,78.10
2017-11-29T00:27:15.633Z,78.80
2017-11-29T00:29:43.084Z,78.10
2017-11-29T00:32:10.534Z,78.10
2017-11-29T00:34:37.988Z,78.10
2017-11-29T00:37:05.432Z,78.30
2017-11-29T00:39:32.889Z,78.30
2017-11-29T00:42:01.091Z,78.40
2017-11-29T00:44:28.564Z,78.40
2017-11-29T00:46:56.022Z,78.40
2017-11-29T00:49:24.227Z,78.50
2017-11-29T00:51:51.693Z,78.50
2017-11-29T00:54:19.159Z,78.50
2017-11-29T00:56:46.614Z,78.50
2017-11-29T00:59:14.061Z,78.50
2017-11-29T01:01:41.536Z,78.60
2017-11-29T01:04:09.766Z,78.70
2017-11-29T01:06:37.991Z,78.70
2017-11-29T01:09:05.455Z,78.70
2017-11-29T01:11:33.668Z,78.80
2017-11-29T01:14:01.904Z,79.00
2017-11-29T01:16:29.346Z,78.70
2017-11-29T01:18:56.817Z,78.80
2017-11-29T01:21:24.260Z,78.90
2017-11-29T01:23:51.714Z,79.00
2017-11-29T01:26:19.936Z,79.10
2017-11-29T01:28:47.385Z,79.00
2017-11-29T01:31:14.846Z,79.10
2017-11-29T01:33:42.305Z,79.00
2017-11-29T01:36:09.776Z,79.00
2017-11-29T01:38:37.207Z,79.00
2017-11-29T01:41:04.673Z,79.10
2017-11-29T01:43:32.892Z,79.20
2017-11-29T01:46:00.350Z,79.30
2017-11-29T01:48:27.813Z,79.30
2017-11-29T01:50:55.257Z,79.20
2017-11-29T01:53:22.723Z,79.20
2017-11-29T01:55:50.189Z,79.20
2017-11-29T01:58:17.751Z,79.20
2017-11-29T02:00:49.119Z,79.10
2017-11-29T02:03:16.563Z,79.20
2017-11-29T02:05:44.035Z,79.30
2017-11-29T02:08:11.540Z,79.40
2017-11-29T02:10:38.981Z,79.40
2017-11-29T02:13:06.429Z,79.90
2017-11-29T02:15:33.884Z,79.50
2017-11-29T02:18:01.370Z,79.50
2017-11-29T02:20:28.818Z,79.50
2017-11-29T02:22:56.286Z,79.60
2017-11-29T02:25:23.747Z,79.70
2017-11-29T02:27:51.187Z,79.70
2017-11-29T02:30:18.652Z,79.70
2017-11-29T02:32:46.101Z,79.80
2017-11-29T02:35:13.544Z,79.70
2017-11-29T02:37:41.765Z,79.80
2017-11-29T02:40:21.038Z,79.80
2017-11-29T02:42:48.527Z,79.80
2017-11-29T02:45:15.972Z,79.70
2017-11-29T02:47:43.421Z,79.90
2017-11-29T02:50:10.870Z,79.80
2017-11-29T02:52:38.324Z,79.90
2017-11-29T02:55:05.803Z,79.90
2017-11-29T02:57:33.259Z,80.00
2017-11-29T03:00:00.730Z,80.00
2017-11-29T03:02:28.175Z,80.00
2017-11-29T03:04:55.614Z,80.00
2017-11-29T03:07:23.082Z,80.20
2017-11-29T03:09:50.550Z,80.20
2017-11-29T03:12:17.996Z,80.10
2017-11-29T03:14:45.435Z,80.10
2017-11-29T03:17:12.877Z,80.10
2017-11-29T03:19:40.332Z,80.20
2017-11-29T03:22:07.792Z,80.10
2017-11-29T03:24:35.260Z,80.30
2017-11-29T03:27:02.705Z,80.30
2017-11-29T03:29:30.173Z,80.30
2017-11-29T03:31:57.607Z,80.20
2017-11-29T03:34:25.042Z,80.20
2017-11-29T03:36:52.496Z,80.20
2017-11-29T03:39:19.937Z,80.30
2017-11-29T03:41:48.162Z,80.70
2017-11-29T03:44:15.603Z,80.20
2017-11-29T03:46:43.098Z,80.40
2017-11-29T03:49:11.287Z,80.20
2017-11-29T03:51:38.730Z,80.20
2017-11-29T03:54:06.180Z,80.20
2017-11-29T03:56:33.615Z,80.30
2017-11-29T03:59:01.863Z,80.50
2017-11-29T04:01:29.308Z,80.40
2017-11-29T04:03:56.809Z,80.40
2017-11-29T04:06:24.263Z,80.40
2017-11-29T04:08:51.691Z,80.60
2017-11-29T04:11:19.142Z,80.60
2017-11-29T04:13:46.605Z,80.60
2017-11-29T04:16:14.091Z,80.60
2017-11-29T04:18:41.564Z,80.70
2017-11-29T04:21:09.029Z,80.70
2017-11-29T04:23:36.511Z,80.70
2017-11-29T04:26:03.953Z,80.80
2017-11-29T04:28:31.420Z,80.80
2017-11-29T04:30:58.883Z,80.90
2017-11-29T04:33:26.319Z,81.00
2017-11-29T04:35:53.781Z,81.00
2017-11-29T04:38:21.254Z,81.10
2017-11-29T04:40:48.751Z,81.20
2017-11-29T04:43:16.203Z,81.10
2017-11-29T04:45:43.653Z,81.00
2017-11-29T04:48:11.119Z,81.20
2017-11-29T04:50:38.590Z,81.00
2017-11-29T04:53:06.032Z,81.10
2017-11-29T04:55:33.493Z,81.20
2017-11-29T04:58:00.985Z,81.10
2017-11-29T05:00:28.455Z,81.20
2017-11-29T05:02:56.669Z,81.10
2017-11-29T05:05:24.137Z,81.10
2017-11-29T05:07:51.596Z,81.10
2017-11-29T05:10:19.081Z,81.20
2017-11-29T05:12:46.541Z,81.20
2017-11-29T05:15:14.020Z,81.90
2017-11-29T05:17:41.483Z,81.20
2017-11-29T05:20:08.934Z,81.30
2017-11-29T05:22:36.408Z,81.30
2017-11-29T05:25:03.865Z,81.20
2017-11-29T05:27:31.397Z,81.30
2017-11-29T05:29:58.840Z,81.30
2017-11-29T05:32:26.315Z,81.30
2017-11-29T05:34:53.752Z,81.40
2017-11-29T05:37:21.951Z,81.40
2017-11-29T05:39:49.416Z,81.40
2017-11-29T05:42:16.898Z,81.40
2017-11-29T05:44:44.347Z,81.40
2017-11-29T05:47:11.798Z,81.40
2017-11-29T05:49:39.280Z,81.50
2017-11-29T05:52:06.738Z,81.50
2017-11-29T05:54:34.187Z,81.60
2017-11-29T05:57:01.648Z,81.60
2017-11-29T05:59:29.078Z,81.60
2017-11-29T06:01:56.546Z,81.60
2017-11-29T06:04:24.762Z,81.60
2017-11-29T06:06:52.231Z,81.70
2017-11-29T06:09:19.681Z,81.70
2017-11-29T06:11:47.169Z,81.70
2017-11-29T06:14:14.616Z,81.70
2017-11-29T06:16:42.075Z,81.70
2017-11-29T06:19:10.332Z,81.80
2017-11-29T06:21:38.524Z,81.70
2017-11-29T06:24:06.000Z,81.70
2017-11-29T06:26:33.441Z,81.70
2017-11-29T06:29:00.902Z,81.70
2017-11-29T06:31:28.449Z,81.60
2017-11-29T06:33:55.913Z,81.60
2017-11-29T06:36:24.147Z,81.70
2017-11-29T06:38:52.419Z,81.60
2017-11-29T06:41:19.872Z,81.60
2017-11-29T06:43:47.346Z,81.60
2017-11-29T06:46:14.804Z,81.60
2017-11-29T06:48:42.259Z,81.60
2017-11-29T06:51:09.720Z,81.80
2017-11-29T06:53:37.207Z,81.80
2017-11-29T06:56:04.665Z,82.40
2017-11-29T06:58:32.146Z,81.80
2017-11-29T07:00:59.601Z,81.70
2017-11-29T07:03:27.063Z,81.70
2017-11-29T07:05:54.533Z,81.70
2017-11-29T07:08:21.984Z,81.80
2017-11-29T07:10:49.450Z,81.80
2017-11-29T07:13:16.892Z,81.80
2017-11-29T07:15:44.352Z,81.80
2017-11-29T07:18:11.815Z,81.80
2017-11-29T07:20:39.298Z,81.80
2017-11-29T07:23:07.515Z,81.70
2017-11-29T07:25:35.753Z,81.80
2017-11-29T07:28:03.205Z,81.80
2017-11-29T07:30:30.866Z,81.90
2017-11-29T07:32:58.322Z,81.80
2017-11-29T07:35:25.759Z,82.60
2017-11-29T07:37:53.215Z,82.00
2017-11-29T07:40:21.442Z,82.10
2017-11-29T07:42:48.896Z,82.10
2017-11-29T07:45:16.349Z,82.10
2017-11-29T07:47:43.821Z,82.20
2017-11-29T07:50:11.277Z,82.20
2017-11-29T07:52:38.726Z,82.40
2017-11-29T07:55:06.182Z,82.40
2017-11-29T07:57:33.630Z,82.40
2017-11-29T08:00:01.861Z,82.60
2017-11-29T08:02:29.326Z,82.50
2017-11-29T08:04:56.771Z,82.60
2017-11-29T08:07:24.222Z,82.50
2017-11-29T08:09:51.690Z,82.50
2017-11-29T08:12:19.157Z,82.40
2017-11-29T08:14:46.625Z,82.40
2017-11-29T08:17:14.085Z,83.20
2017-11-29T08:19:41.539Z,82.40
2017-11-29T08:22:09.012Z,82.40
2017-11-29T08:24:36.464Z,82.40
2017-11-29T08:27:03.928Z,82.40
2017-11-29T08:29:31.384Z,82.40
2017-11-29T08:31:58.848Z,82.50
2017-11-29T08:34:26.297Z,82.60
2017-11-29T08:36:53.785Z,82.70
2017-11-29T08:39:21.250Z,82.70
2017-11-29T08:41:48.710Z,82.70
2017-11-29T08:44:16.164Z,82.70
2017-11-29T08:46:43.606Z,82.70
2017-11-29T08:49:11.066Z,82.70
2017-11-29T08:51:39.304Z,82.80
2017-11-29T08:54:06.757Z,82.80
2017-11-29T08:56:34.204Z,82.80
2017-11-29T08:59:01.681Z,82.80
2017-11-29T09:01:29.148Z,82.80
2017-11-29T09:03:56.608Z,82.80
2017-11-29T09:06:24.067Z,82.90
2017-11-29T09:08:51.519Z,82.90
2017-11-29T09:11:19.069Z,82.90
2017-11-29T09:13:46.501Z,82.90
2017-11-29T09:16:14.727Z,82.90
2017-11-29T09:18:42.202Z,82.90
2017-11-29T09:21:10.407Z,83.10
2017-11-29T09:23:37.848Z,83.10
2017-11-29T09:26:05.289Z,83.20
2017-11-29T09:28:32.748Z,83.20
2017-11-29T09:31:00.213Z,83.20
2017-11-29T09:33:27.684Z,83.20
2017-11-29T09:35:55.132Z,83.30
2017-11-29T09:38:22.595Z,83.30
2017-11-29T09:40:50.049Z,83.30
2017-11-29T09:43:17.529Z,83.30
2017-11-29T09:45:44.985Z,83.30
2017-11-29T09:48:12.454Z,83.40
2017-11-29T09:50:40.003Z,83.30
2017-11-29T09:53:07.474Z,83.30
2017-11-29T09:55:34.906Z,83.30
2017-11-29T09:58:03.132Z,83.30
2017-11-29T10:00:30.592Z,83.30
2017-11-29T10:02:58.031Z,83.30
2017-11-29T10:05:25.480Z,83.40
2017-11-29T10:07:52.945Z,83.30
2017-11-29T10:10:20.396Z,83.30
2017-11-29T10:12:48.649Z,83.10
2017-11-29T10:15:16.092Z,83.10
2017-11-29T10:17:43.556Z,83.10
2017-11-29T10:20:11.021Z,83.10
2017-11-29T10:22:38.479Z,82.70
2017-11-29T10:25:05.944Z,82.90
2017-11-29T10:27:33.415Z,82.50
2017-11-29T10:30:00.887Z,82.60
2017-11-29T10:32:28.335Z,82.50
2017-11-29T10:34:55.805Z,82.50
2017-11-29T10:37:23.251Z,82.30
2017-11-29T10:39:50.697Z,82.40
2017-11-29T10:42:18.145Z,82.30
2017-11-29T10:44:45.595Z,82.20
2017-11-29T10:47:13.050Z,81.90
2017-11-29T10:49:40.579Z,82.00
2017-11-29T10:52:08.018Z,81.90
2017-11-29T10:54:35.452Z,81.20
2017-11-29T10:57:02.869Z,81.10
2017-11-29T10:59:30.330Z,81.10
2017-11-29T11:01:57.778Z,80.60
2017-11-29T11:04:25.233Z,80.80
2017-11-29T11:06:52.689Z,80.90
2017-11-29T11:09:20.144Z,79.30
2017-11-29T11:11:47.607Z,79.10
2017-11-29T11:14:15.065Z,79.70
2017-11-29T11:16:42.533Z,79.80
2017-11-29T11:19:09.993Z,79.70
2017-11-29T11:21:37.445Z,79.80
2017-11-29T11:24:04.896Z,79.70
2017-11-29T11:26:32.355Z,79.90
2017-11-29T11:28:59.790Z,78.60
2017-11-29T11:31:28.021Z,79.60
2017-11-29T11:33:55.486Z,79.50
2017-11-29T11:36:22.923Z,79.60
2017-11-29T11:38:50.390Z,79.70
2017-11-29T11:41:17.835Z,79.30
2017-11-29T11:43:46.245Z,79.30
2017-11-29T11:46:13.717Z,79.30
2017-11-29T11:48:41.202Z,79.30
2017-11-29T11:51:08.656Z,79.10
2017-11-29T11:53:36.193Z,79.20
2017-11-29T11:56:03.659Z,79.20
2017-11-29T11:58:31.116Z,78.70
2017-11-29T12:00:58.580Z,78.50
2017-11-29T12:03:26.025Z,77.60
2017-11-29T12:05:53.477Z,75.10
2017-11-29T12:08:21.682Z,76.20
2017-11-29T12:10:49.146Z,76.20
2017-11-29T12:13:16.604Z,75.90
2017-11-29T12:15:44.073Z,74.90
2017-11-29T12:18:11.556Z,74.80
2017-11-29T12:20:39.016Z,76.10
2017-11-29T12:23:06.448Z,76.40
2017-11-29T12:25:33.954Z,76.40
2017-11-29T12:28:01.409Z,76.40
2017-11-29T12:30:28.866Z,76.60
2017-11-29T12:32:57.129Z,76.00
2017-11-29T12:35:24.568Z,76.00
2017-11-29T12:37:52.896Z,75.80
2017-11-29T12:40:20.347Z,75.80
2017-11-29T12:42:47.803Z,75.30
2017-11-29T12:45:15.257Z,74.30
2017-11-29T12:47:42.705Z,74.30
2017-11-29T12:50:21.873Z,75.40
2017-11-29T12:52:49.331Z,75.70
2017-11-29T12:55:16.791Z,75.90
2017-11-29T12:57:44.227Z,75.50
2017-11-29T13:00:11.697Z,75.30
2017-11-29T13:02:39.146Z,73.10
2017-11-29T13:05:06.581Z,73.10
2017-11-29T13:07:34.806Z,75.40
2017-11-29T13:10:02.242Z,74.80
2017-11-29T13:12:30.442Z,75.00
2017-11-29T13:14:57.919Z,74.90
2017-11-29T13:17:25.378Z,75.00
2017-11-29T13:19:52.813Z,73.40
2017-11-29T13:22:20.292Z,74.40
2017-11-29T13:24:47.859Z,74.70
2017-11-29T13:27:15.308Z,74.70
2017-11-29T13:29:42.746Z,74.60
2017-11-29T13:32:11.005Z,74.70
2017-11-29T13:34:38.451Z,74.60
2017-11-29T13:37:05.921Z,74.20
2017-11-29T13:39:33.377Z,74.20
2017-11-29T13:42:00.830Z,74.30
2017-11-29T13:44:28.279Z,74.30
2017-11-29T13:46:55.735Z,74.30
2017-11-29T13:49:23.183Z,74.30
2017-11-29T13:51:50.639Z,74.20
2017-11-29T13:54:18.848Z,73.90
2017-11-29T13:56:46.309Z,73.90
2017-11-29T13:59:13.737Z,73.70
2017-11-29T14:01:41.962Z,72.60
2017-11-29T14:04:09.406Z,72.60
2017-11-29T14:06:36.881Z,71.60
2017-11-29T14:09:04.324Z,72.80
2017-11-29T14:11:31.797Z,73.90
2017-11-29T14:13:59.237Z,72.70
2017-11-29T14:16:26.706Z,73.30
2017-11-29T14:18:54.166Z,73.30
2017-11-29T14:21:21.644Z,73.30
2017-11-29T14:23:49.106Z,73.50
2017-11-29T14:26:16.560Z,73.40
2017-11-29T14:28:44.036Z,73.60
2017-11-29T14:31:11.504Z,73.70
2017-11-29T14:33:38.966Z,73.60
2017-11-29T14:36:06.417Z,73.80
2017-11-29T14:38:33.881Z,73.90
2017-11-29T14:41:01.333Z,74.00
2017-11-29T14:43:28.794Z,73.80
2017-11-29T14:45:56.266Z,73.90
2017-11-29T14:48:23.744Z,74.00
2017-11-29T14:50:51.204Z,73.80
2017-11-29T14:53:18.656Z,73.90
2017-11-29T14:55:46.116Z,73.80
2017-11-29T14:58:14.413Z,73.50
2017-11-29T15:00:41.876Z,73.80
2017-11-29T15:03:09.330Z,73.50
2017-11-29T15:05:36.773Z,73.00
2017-11-29T15:08:04.245Z,73.30
2017-11-29T15:10:31.710Z,73.30
2017-11-29T15:12:59.189Z,73.20
2017-11-29T15:15:26.636Z,73.50
2017-11-29T15:17:54.086Z,73.60
2017-11-29T15:20:21.563Z,73.60
2017-11-29T15:22:49.768Z,73.30
2017-11-29T15:25:17.200Z,73.30
2017-11-29T15:27:44.661Z,72.20
2017-11-29T15:30:12.106Z,72.80
2017-11-29T15:32:39.570Z,73.10
2017-11-29T15:35:07.022Z,74.00
2017-11-29T15:37:35.240Z,73.30
2017-11-29T15:40:02.698Z,73.30
2017-11-29T15:42:30.169Z,73.30
2017-11-29T15:44:58.421Z,74.00
2017-11-29T15:47:25.874Z,73.30
2017-11-29T15:49:54.105Z,73.30
2017-11-29T15:52:21.581Z,73.30
2017-11-29T15:54:49.040Z,73.40
2017-11-29T15:57:16.500Z,73.40
2017-11-29T15:59:43.961Z,73.60
2017-11-29T16:02:12.178Z,73.60
2017-11-29T16:04:39.667Z,73.60
2017-11-29T16:07:07.130Z,73.70
2017-11-29T16:09:34.603Z,73.70
2017-11-29T16:12:02.056Z,73.70
2017-11-29T16:14:29.521Z,73.90
2017-11-29T16:16:56.982Z,73.90
2017-11-29T16:19:24.445Z,73.90
2017-11-29T16:21:51.950Z,74.00
2017-11-29T16:24:19.409Z,74.00
2017-11-29T16:26:46.881Z,74.10
2017-11-29T16:29:14.350Z,74.20
2017-11-29T16:31:41.817Z,74.20
2017-11-29T16:34:09.276Z,74.20
2017-11-29T16:36:37.503Z,74.10
2017-11-29T16:39:04.964Z,74.10
2017-11-29T16:41:32.424Z,74.20
2017-11-29T16:43:59.897Z,74.30
2017-11-29T16:46:27.361Z,74.30
2017-11-29T16:48:54.827Z,74.40
2017-11-29T16:51:22.281Z,74.50
2017-11-29T16:53:49.762Z,74.40
2017-11-29T16:56:17.213Z,74.40
2017-11-29T16:58:44.690Z,74.50
2017-11-29T17:01:12.145Z,74.50
2017-11-29T17:03:39.600Z,74.50
2017-11-29T17:06:07.074Z,74.70
2017-11-29T17:08:34.533Z,74.70
2017-11-29T17:11:02.011Z,74.70
2017-11-29T17:13:29.478Z,74.80
2017-11-29T17:15:56.949Z,74.90
2017-11-29T17:18:24.395Z,74.90
2017-11-29T17:20:51.879Z,74.90
2017-11-29T17:23:19.351Z,74.80
2017-11-29T17:25:46.838Z,74.90
2017-11-29T17:28:15.061Z,74.80
2017-11-29T17:30:42.525Z,74.80
2017-11-29T17:33:09.978Z,74.80
2017-11-29T17:35:37.449Z,74.90
2017-11-29T17:38:04.913Z,74.90
2017-11-29T17:40:32.389Z,75.00
2017-11-29T17:42:59.861Z,75.10
2017-11-29T17:45:27.336Z,75.10
2017-11-29T17:47:55.558Z,75.20
2017-11-29T17:50:23.018Z,75.20
2017-11-29T17:52:50.477Z,75.20
2017-11-29T17:55:17.949Z,75.30
2017-11-29T17:57:45.393Z,75.30
2017-11-29T18:00:12.847Z,75.30
2017-11-29T18:02:40.306Z,75.40
2017-11-29T18:05:07.765Z,75.40
2017-11-29T18:07:35.221Z,75.50
2017-11-29T18:10:03.455Z,75.50
2017-11-29T18:12:30.893Z,75.50
2017-11-29T18:14:58.370Z,75.50
2017-11-29T18:17:25.834Z,75.60
2017-11-29T18:19:53.311Z,75.60
2017-11-29T18:22:20.767Z,75.60
2017-11-29T18:24:48.221Z,75.50
2017-11-29T18:27:15.685Z,75.50
2017-11-29T18:29:43.143Z,75.50
2017-11-29T18:32:10.605Z,75.50
2017-11-29T18:34:38.061Z,75.60
2017-11-29T18:37:05.534Z,75.60
2017-11-29T18:39:33.753Z,75.90
2017-11-29T18:42:01.995Z,75.80
2017-11-29T18:44:29.439Z,75.80
2017-11-29T18:46:56.897Z,76.00
2017-11-29T18:49:24.360Z,76.00
2017-11-29T18:51:51.821Z,76.10
2017-11-29T18:54:19.278Z,76.00
2017-11-29T18:56:46.753Z,76.10
2017-11-29T18:59:14.261Z,76.10
2017-11-29T19:01:41.757Z,76.20
2017-11-29T19:04:09.993Z,76.30
2017-11-29T19:06:37.441Z,76.30
2017-11-29T19:09:05.658Z,76.30
2017-11-29T19:11:33.904Z,76.30
2017-11-29T19:14:01.360Z,76.30
2017-11-29T19:16:28.824Z,76.20
2017-11-29T19:18:56.272Z,76.30
2017-11-29T19:21:23.733Z,76.30
2017-11-29T19:23:51.192Z,76.30
2017-11-29T19:26:18.655Z,76.30
2017-11-29T19:28:46.113Z,76.30
2017-11-29T19:31:13.579Z,76.30
2017-11-29T19:33:41.038Z,76.20
2017-11-29T19:36:08.509Z,76.30
2017-11-29T19:38:35.964Z,76.40
2017-11-29T19:41:03.425Z,76.40
2017-11-29T19:43:30.885Z,76.40
2017-11-29T19:45:58.356Z,76.40
2017-11-29T19:48:25.813Z,76.40
2017-11-29T19:50:53.289Z,76.50
2017-11-29T19:53:20.737Z,76.60
2017-11-29T19:55:48.185Z,76.60
2017-11-29T19:58:15.627Z,76.60
2017-11-29T20:00:43.827Z,76.70
2017-11-29T20:03:11.285Z,76.70
2017-11-29T20:05:38.728Z,76.70
2017-11-29T20:08:06.949Z,76.80
2017-11-29T20:10:34.406Z,76.70
2017-11-29T20:13:01.869Z,76.80
2017-11-29T20:15:29.332Z,76.60
2017-11-29T20:17:56.802Z,76.70
2017-11-29T20:20:24.262Z,76.70
2017-11-29T20:22:51.822Z,76.80
2017-11-29T20:25:19.281Z,76.70
2017-11-29T20:27:46.745Z,76.70
2017-11-29T20:30:14.207Z,76.70
2017-11-29T20:32:41.668Z,76.80
2017-11-29T20:35:09.124Z,76.70
2017-11-29T20:37:36.580Z,76.70
2017-11-29T20:40:04.042Z,76.80
2017-11-29T20:42:31.506Z,77.10
2017-11-29T20:44:58.955Z,77.20
2017-11-29T20:47:27.230Z,77.20
2017-11-29T20:49:55.443Z,77.10
2017-11-29T20:52:34.546Z,77.90
2017-11-29T20:55:02.762Z,77.10
2017-11-29T20:57:30.225Z,77.10
2017-11-29T20:59:57.673Z,77.10
2017-11-29T21:02:25.125Z,77.20
2017-11-29T21:04:52.573Z,77.00
2017-11-29T21:07:20.821Z,77.00
2017-11-29T21:09:48.265Z,77.00
2017-11-29T21:12:15.727Z,77.10
2017-11-29T21:14:43.181Z,77.20
2017-11-29T21:17:10.645Z,77.10
2017-11-29T21:19:38.097Z,77.00
2017-11-29T21:22:05.561Z,77.80
2017-11-29T21:24:33.028Z,77.10
2017-11-29T21:27:00.492Z,77.20
2017-11-29T21:29:27.948Z,77.20
2017-11-29T21:31:55.404Z,77.10
2017-11-29T21:34:22.873Z,77.20
2017-11-29T21:36:50.320Z,77.20
2017-11-29T21:39:17.781Z,77.20
2017-11-29T21:41:45.238Z,77.10
2017-11-29T21:44:12.698Z,77.10
2017-11-29T21:46:40.146Z,77.00
2017-11-29T21:49:08.368Z,77.10
2017-11-29T21:51:35.809Z,77.10
2017-11-29T21:54:03.261Z,77.10
2017-11-29T21:56:30.725Z,77.00
2017-11-29T21:58:58.177Z,77.10
2017-11-29T22:01:26.407Z,77.20
2017-11-29T22:03:53.846Z,77.10
2017-11-29T22:06:21.330Z,77.10
2017-11-29T22:08:48.779Z,77.00
2017-11-29T22:11:16.337Z,77.20
2017-11-29T22:13:43.785Z,77.20
2017-11-29T22:16:11.239Z,77.10
2017-11-29T22:18:39.456Z,77.30
2017-11-29T22:21:06.913Z,77.30
2017-11-29T22:23:34.361Z,77.50
2017-11-29T22:26:01.812Z,77.50
2017-11-29T22:28:29.274Z,77.40
2017-11-29T22:30:56.749Z,77.40
2017-11-29T22:33:24.210Z,77.40
2017-11-29T22:35:51.652Z,77.40
2017-11-29T22:38:19.112Z,77.50
2017-11-29T22:40:47.335Z,77.20
2017-11-29T22:43:14.796Z,77.20
2017-11-29T22:45:42.240Z,77.30
2017-11-29T22:48:09.722Z,77.40
2017-11-29T22:50:37.152Z,77.40
2017-11-29T22:53:04.604Z,77.50
2017-11-29T22:55:32.834Z,77.60
2017-11-29T22:58:01.062Z,77.50
2017-11-29T23:00:29.370Z,77.60
2017-11-29T23:02:56.822Z,77.60
2017-11-29T23:05:24.304Z,77.50
2017-11-29T23:07:51.760Z,77.40
2017-11-29T23:10:19.200Z,77.30
2017-11-29T23:12:46.635Z,77.30
2017-11-29T23:15:14.847Z,76.70
2017-11-29T23:17:42.334Z,77.30
2017-11-29T23:20:09.782Z,77.40
2017-11-29T23:22:37.228Z,77.30
2017-11-29T23:25:04.690Z,77.20
2017-11-29T23:27:32.140Z,77.20
2017-11-29T23:30:00.377Z,77.20
2017-11-29T23:32:27.812Z,77.20
2017-11-29T23:34:55.273Z,77.20
2017-11-29T23:37:22.741Z,77.20
2017-11-29T23:39:50.201Z,77.20
2017-11-29T23:42:17.660Z,77.40
2017-11-29T23:44:45.104Z,77.40
2017-11-29T23:47:12.569Z,77.20
2017-11-29T23:49:39.998Z,77.40
2017-11-29T23:52:07.437Z,77.50
2017-11-29T23:54:34.894Z,77.40
2017-11-29T23:57:02.344Z,77.20
2017-11-29T23:59:29.901Z,77.20
